North Conway, New Hampshire
Current Conditions -  °F | °C
As of 7:15 AM on Friday 24 Oct 2014 (Local Time) from KIZG Reporting Station
Light Rain Light Rain  
Wind Chill: 44°   Ceiling: 1600
Heat Index: 47°   Visibility: 4mi
Dew Point: 45°   Wind: 6mph
Humidity: 93%   Direction: 340°NNW
Pressure: 29.72"   Gusts: NA
Location:  44.05°N, 71.13°W
Report Text: KIZG 241115Z AUTO 34005KT 4SM -RA BR SCT007 OVC016 08/07 A2972 RMK AO2 RAB04 P0001 T00830072
Loading
Personal Weather Stations






























Interactive Weather Map
Tropical Storm Tracking
New forecast layout! Learn more

10-Day Weather Forecast

Advertisements
Track Severe Weather on mobile